createdAt,value
2023-05-03T00:01:24.787Z,12.40
2023-05-03T00:03:52.901Z,12.50
2023-05-03T00:06:19.918Z,12.50
2023-05-03T00:08:51.477Z,12.50
2023-05-03T00:11:21.235Z,12.50
2023-05-03T00:13:50.932Z,12.50
2023-05-03T00:16:19.953Z,12.40
2023-05-03T00:18:48.486Z,12.50
2023-05-03T00:21:16.373Z,12.40
2023-05-03T00:23:43.142Z,12.50
2023-05-03T00:26:09.957Z,12.50
2023-05-03T00:28:36.692Z,12.50
2023-05-03T00:31:10.116Z,12.50
2023-05-03T00:33:40.009Z,12.60
2023-05-03T00:36:10.625Z,12.50
2023-05-03T00:38:37.760Z,12.50
2023-05-03T00:41:09.271Z,12.50
2023-05-03T00:43:36.924Z,12.40
2023-05-03T00:46:15.153Z,12.40
2023-05-03T00:48:48.484Z,12.40
2023-05-03T00:51:15.719Z,12.50
2023-05-03T00:53:45.556Z,12.40
2023-05-03T00:56:12.390Z,12.40
2023-05-03T00:58:41.412Z,12.40
2023-05-03T01:01:08.892Z,12.30
2023-05-03T01:03:41.827Z,12.20
2023-05-03T01:06:17.061Z,12.20
2023-05-03T01:09:00.745Z,12.20
2023-05-03T01:11:55.871Z,12.20
2023-05-03T01:14:51.025Z,12.20
2023-05-03T01:17:17.775Z,12.10
2023-05-03T01:19:45.793Z,12.10
2023-05-03T01:22:22.587Z,12.00
2023-05-03T01:24:52.062Z,11.90
2023-05-03T01:27:19.389Z,11.90
2023-05-03T01:29:46.489Z,11.90
2023-05-03T01:32:18.409Z,11.90
2023-05-03T01:34:51.589Z,11.90
2023-05-03T01:37:18.461Z,11.80
2023-05-03T01:39:50.717Z,11.80
2023-05-03T01:42:19.646Z,11.80
2023-05-03T01:44:46.430Z,11.90
2023-05-03T01:47:15.178Z,11.80
2023-05-03T01:49:42.148Z,11.70
2023-05-03T01:52:11.260Z,11.80
2023-05-03T01:54:40.266Z,11.70
2023-05-03T01:57:07.087Z,11.60
2023-05-03T01:59:33.868Z,11.60
2023-05-03T02:02:00.729Z,11.50
2023-05-03T02:04:27.564Z,11.50
2023-05-03T02:06:54.358Z,11.50
2023-05-03T02:09:21.183Z,11.40
2023-05-03T02:11:50.368Z,11.50
2023-05-03T02:14:21.591Z,11.50
2023-05-03T02:16:48.639Z,11.50
2023-05-03T02:19:19.800Z,11.60
2023-05-03T02:21:46.566Z,11.60
2023-05-03T02:24:13.372Z,11.70
2023-05-03T02:26:40.136Z,11.70
2023-05-03T02:29:07.454Z,11.70
2023-05-03T02:31:34.326Z,11.80
2023-05-03T02:34:01.077Z,11.80
2023-05-03T02:36:29.929Z,11.80
2023-05-03T02:38:58.914Z,11.90
2023-05-03T02:41:25.913Z,11.80
2023-05-03T02:43:55.142Z,11.70
2023-05-03T02:46:21.978Z,11.70
2023-05-03T02:48:48.838Z,11.60
2023-05-03T02:51:18.175Z,11.70
2023-05-03T02:53:47.166Z,11.60
2023-05-03T02:56:13.893Z,11.70
2023-05-03T02:58:40.905Z,11.70
2023-05-03T03:01:07.745Z,11.60
2023-05-03T03:03:34.667Z,11.60
2023-05-03T03:06:01.533Z,11.50
2023-05-03T03:08:30.841Z,11.50
2023-05-03T03:10:57.564Z,11.50
2023-05-03T03:13:24.450Z,11.60
2023-05-03T03:15:53.473Z,11.60
2023-05-03T03:18:20.371Z,11.60
2023-05-03T03:20:49.386Z,11.70
2023-05-03T03:23:18.345Z,11.70
2023-05-03T03:25:45.117Z,11.70
2023-05-03T03:28:11.872Z,11.70
2023-05-03T03:30:43.198Z,11.60
2023-05-03T03:33:12.219Z,11.60
2023-05-03T03:35:39.750Z,11.60
2023-05-03T03:38:06.696Z,11.60
2023-05-03T03:40:33.437Z,11.60
2023-05-03T03:43:02.352Z,11.60
2023-05-03T03:45:29.120Z,11.60
2023-05-03T03:47:58.186Z,11.60
2023-05-03T03:50:25.899Z,11.70
2023-05-03T03:52:52.673Z,11.70
2023-05-03T03:55:19.522Z,11.70
2023-05-03T03:57:46.406Z,11.60
2023-05-03T04:00:16.806Z,11.60
2023-05-03T04:02:43.614Z,11.30
2023-05-03T04:05:10.458Z,11.30
2023-05-03T04:07:37.228Z,11.20
2023-05-03T04:10:04.390Z,11.20
2023-05-03T04:12:31.461Z,11.20
2023-05-03T04:14:58.253Z,11.20
2023-05-03T04:17:25.332Z,11.20
2023-05-03T04:19:57.010Z,11.20
2023-05-03T04:22:23.822Z,11.10
2023-05-03T04:24:50.686Z,11.20
2023-05-03T04:27:18.260Z,11.20
2023-05-03T04:29:49.151Z,11.30
2023-05-03T04:32:16.947Z,11.30
2023-05-03T04:34:43.717Z,11.30
2023-05-03T04:37:10.433Z,11.20
2023-05-03T04:39:39.312Z,11.20
2023-05-03T04:42:06.149Z,11.20
2023-05-03T04:44:35.159Z,11.20
2023-05-03T04:47:02.733Z,11.10
2023-05-03T04:49:29.541Z,10.90
2023-05-03T04:51:56.554Z,10.90
2023-05-03T04:54:23.410Z,10.90
2023-05-03T04:56:50.136Z,10.80
2023-05-03T04:59:21.330Z,10.90
2023-05-03T05:01:48.550Z,11.00
2023-05-03T05:04:15.322Z,11.10
2023-05-03T05:06:42.151Z,11.10
2023-05-03T05:09:24.955Z,11.10
2023-05-03T05:11:53.192Z,11.10
2023-05-03T05:14:21.447Z,11.10
2023-05-03T05:16:48.300Z,11.30
2023-05-03T05:19:15.226Z,11.30
2023-05-03T05:21:44.223Z,11.40
2023-05-03T05:24:11.037Z,11.40
2023-05-03T05:26:37.796Z,11.40
2023-05-03T05:29:04.630Z,11.30
2023-05-03T05:31:32.037Z,11.40
2023-05-03T05:33:58.908Z,11.40
2023-05-03T05:36:25.902Z,11.50
2023-05-03T05:38:52.692Z,11.60
2023-05-03T05:41:19.498Z,11.80
2023-05-03T05:43:46.281Z,11.90
2023-05-03T05:46:13.082Z,12.00
2023-05-03T05:48:43.462Z,12.20
2023-05-03T05:51:10.196Z,12.70
2023-05-03T05:53:37.230Z,12.90
2023-05-03T05:56:04.164Z,13.00
2023-05-03T05:58:30.919Z,13.00
2023-05-03T06:01:01.463Z,12.90
2023-05-03T06:03:31.820Z,12.90
2023-05-03T06:05:58.633Z,13.20
2023-05-03T06:08:27.607Z,13.70
2023-05-03T06:10:56.814Z,14.00
2023-05-03T06:13:23.673Z,14.70
2023-05-03T06:15:50.580Z,15.40
2023-05-03T06:18:17.390Z,15.90
2023-05-03T06:20:46.283Z,16.00
2023-05-03T06:23:13.058Z,15.60
2023-05-03T06:25:39.896Z,15.10
2023-05-03T06:28:06.628Z,14.70
2023-05-03T06:30:33.526Z,14.30
2023-05-03T06:33:00.325Z,13.90
2023-05-03T06:35:27.342Z,13.60
2023-05-03T06:37:54.109Z,13.40
2023-05-03T06:40:22.795Z,13.10
2023-05-03T06:42:49.838Z,13.00
2023-05-03T06:45:16.727Z,12.90
2023-05-03T06:47:43.551Z,12.90
2023-05-03T06:50:10.934Z,12.90
2023-05-03T06:52:37.814Z,12.80
2023-05-03T06:55:07.324Z,12.80
2023-05-03T06:57:34.071Z,12.80
2023-05-03T07:00:01.013Z,12.70
2023-05-03T07:02:30.153Z,12.70
2023-05-03T07:04:56.950Z,12.70
2023-05-03T07:07:23.778Z,12.60
2023-05-03T07:09:50.728Z,12.50
2023-05-03T07:12:19.664Z,12.60
2023-05-03T07:14:48.940Z,12.60
2023-05-03T07:17:17.956Z,12.70
2023-05-03T07:19:44.902Z,12.70
2023-05-03T07:22:12.331Z,12.70
2023-05-03T07:24:39.076Z,12.60
2023-05-03T07:27:05.859Z,12.60
2023-05-03T07:29:35.116Z,12.70
2023-05-03T07:32:01.847Z,12.60
2023-05-03T07:34:33.736Z,12.60
2023-05-03T07:37:00.610Z,12.60
2023-05-03T07:39:32.292Z,12.70
2023-05-03T07:41:59.064Z,12.70
2023-05-03T07:44:25.900Z,12.70
2023-05-03T07:46:55.040Z,12.80
2023-05-03T07:49:22.133Z,12.90
2023-05-03T07:51:48.872Z,13.00
2023-05-03T07:54:15.687Z,12.90
2023-05-03T07:56:42.466Z,12.90
2023-05-03T07:59:10.578Z,12.90
2023-05-03T08:01:38.176Z,13.00
2023-05-03T08:04:08.534Z,13.00
2023-05-03T08:06:38.844Z,13.10
2023-05-03T08:09:05.811Z,13.10
2023-05-03T08:11:32.635Z,13.10
2023-05-03T08:13:59.459Z,13.10
2023-05-03T08:16:26.395Z,13.20
2023-05-03T08:18:53.251Z,13.20
2023-05-03T08:21:24.872Z,13.30
2023-05-03T08:23:54.693Z,13.20
2023-05-03T08:26:22.207Z,13.10
2023-05-03T08:28:49.069Z,13.10
2023-05-03T08:31:16.749Z,13.20
2023-05-03T08:33:43.924Z,13.30
2023-05-03T08:36:10.807Z,13.30
2023-05-03T08:38:41.261Z,13.20
2023-05-03T08:41:19.640Z,13.20
2023-05-03T08:43:46.778Z,13.10
2023-05-03T08:46:13.907Z,13.10
2023-05-03T08:48:40.790Z,13.20
2023-05-03T08:51:08.511Z,13.20
2023-05-03T08:53:37.924Z,13.30
2023-05-03T08:56:12.545Z,13.30
2023-05-03T08:58:41.603Z,13.30
2023-05-03T09:01:11.549Z,13.30
2023-05-03T09:03:38.648Z,13.30
2023-05-03T09:06:20.213Z,13.40
2023-05-03T09:08:47.072Z,13.30
2023-05-03T09:11:30.669Z,13.40
2023-05-03T09:14:17.265Z,13.50
2023-05-03T09:16:45.138Z,13.50
2023-05-03T09:19:12.789Z,13.40
2023-05-03T09:21:40.467Z,13.40
2023-05-03T09:24:14.451Z,13.40
2023-05-03T09:26:42.252Z,13.60
2023-05-03T09:29:09.273Z,13.60
2023-05-03T09:31:36.594Z,13.60
2023-05-03T09:34:21.042Z,13.50
2023-05-03T09:36:48.030Z,13.50
2023-05-03T09:39:22.696Z,13.50
2023-05-03T09:41:49.576Z,13.50
2023-05-03T09:44:20.999Z,13.50
2023-05-03T09:47:06.368Z,13.60
2023-05-03T09:49:37.073Z,13.50
2023-05-03T09:52:04.369Z,13.40
2023-05-03T09:54:31.483Z,13.40
2023-05-03T09:57:02.519Z,13.30
2023-05-03T09:59:29.393Z,13.40
2023-05-03T10:02:01.605Z,13.50
2023-05-03T10:04:31.247Z,13.50
2023-05-03T10:07:00.555Z,13.70
2023-05-03T10:09:39.896Z,13.80
2023-05-03T10:12:12.490Z,13.80
2023-05-03T10:14:43.243Z,13.90
2023-05-03T10:17:46.565Z,14.00
2023-05-03T10:20:30.261Z,14.20
2023-05-03T10:23:06.493Z,14.10
2023-05-03T10:25:35.153Z,14.20
2023-05-03T10:28:06.109Z,14.30
2023-05-03T10:30:34.845Z,14.40
2023-05-03T10:33:14.242Z,14.50
2023-05-03T10:35:52.399Z,14.70
2023-05-03T10:38:26.528Z,14.90
2023-05-03T10:40:55.002Z,15.00
2023-05-03T10:43:33.612Z,15.00
2023-05-03T10:46:02.755Z,15.00
2023-05-03T10:48:32.227Z,14.90
2023-05-03T10:51:29.068Z,15.00
2023-05-03T10:53:55.895Z,15.20
2023-05-03T10:56:22.790Z,15.50
2023-05-03T10:58:56.241Z,15.80
2023-05-03T11:01:23.267Z,16.40
2023-05-03T11:03:56.087Z,17.20
2023-05-03T11:06:41.373Z,17.80
2023-05-03T11:09:14.787Z,17.70
2023-05-03T11:11:42.080Z,17.40
2023-05-03T11:14:09.104Z,17.50
2023-05-03T11:16:42.420Z,18.50
2023-05-03T11:19:09.487Z,19.90
2023-05-03T11:21:38.866Z,20.60
2023-05-03T11:24:06.018Z,21.90
2023-05-03T11:26:41.174Z,22.30
2023-05-03T11:29:10.595Z,22.50
2023-05-03T11:31:37.521Z,21.60
2023-05-03T11:34:04.384Z,20.70
2023-05-03T11:36:31.664Z,19.90
2023-05-03T11:38:58.410Z,19.30
2023-05-03T11:41:25.204Z,20.50
2023-05-03T11:44:04.088Z,22.90
2023-05-03T11:46:37.422Z,25.10
2023-05-03T11:49:04.386Z,26.90
2023-05-03T11:51:31.482Z,26.60
2023-05-03T11:54:03.036Z,25.40
2023-05-03T11:56:37.323Z,24.00
2023-05-03T11:59:04.180Z,23.10
2023-05-03T12:01:31.050Z,22.20
2023-05-03T12:04:02.763Z,21.60
2023-05-03T12:06:34.187Z,20.90
2023-05-03T12:09:03.747Z,19.20
2023-05-03T12:11:33.397Z,18.40
2023-05-03T12:14:05.158Z,18.10
2023-05-03T12:16:47.329Z,17.90
2023-05-03T12:19:27.448Z,17.80
2023-05-03T12:22:09.365Z,17.80
2023-05-03T12:24:44.574Z,17.80
2023-05-03T12:27:14.579Z,17.50
2023-05-03T12:29:42.037Z,17.40
2023-05-03T12:32:11.695Z,17.40
2023-05-03T12:34:41.419Z,17.40
2023-05-03T12:37:11.817Z,17.40
2023-05-03T12:39:40.070Z,17.40
2023-05-03T12:42:09.328Z,17.50
2023-05-03T12:44:43.043Z,17.60
2023-05-03T12:47:11.043Z,17.60
2023-05-03T12:49:39.511Z,17.60
2023-05-03T12:52:35.458Z,17.60
2023-05-03T12:55:03.135Z,17.60
2023-05-03T12:57:32.460Z,17.40
2023-05-03T13:00:14.516Z,17.50
2023-05-03T13:03:21.485Z,17.40
2023-05-03T13:05:35.491Z,17.50
2023-05-03T13:08:09.058Z,17.60
2023-05-03T13:10:41.266Z,17.70
2023-05-03T13:13:09.275Z,17.80
2023-05-03T13:15:36.622Z,17.90
2023-05-03T13:18:06.694Z,17.90
2023-05-03T13:20:39.135Z,17.80
2023-05-03T13:23:05.897Z,17.70
2023-05-03T13:25:32.746Z,17.70
2023-05-03T13:28:01.774Z,17.70
2023-05-03T13:30:28.733Z,17.50
2023-05-03T13:32:55.534Z,17.40
2023-05-03T13:35:22.336Z,17.40
2023-05-03T13:37:49.140Z,17.50
2023-05-03T13:40:16.106Z,17.70
2023-05-03T13:42:42.895Z,17.80
2023-05-03T13:45:13.638Z,17.30
2023-05-03T13:48:05.217Z,17.40
2023-05-03T13:50:30.729Z,17.60
2023-05-03T13:52:57.631Z,17.90
2023-05-03T13:55:26.400Z,18.10
2023-05-03T13:57:53.112Z,18.20
2023-05-03T14:00:24.830Z,18.40
2023-05-03T14:02:52.555Z,18.50
2023-05-03T14:05:22.262Z,18.60
2023-05-03T14:07:49.232Z,18.60
2023-05-03T14:10:16.140Z,18.60
2023-05-03T14:12:44.437Z,18.60
2023-05-03T14:15:11.892Z,18.70
2023-05-03T14:17:44.547Z,18.60
2023-05-03T14:20:12.363Z,18.70
2023-05-03T14:22:39.242Z,19.20
2023-05-03T14:25:06.578Z,19.70
2023-05-03T14:27:33.338Z,20.00
2023-05-03T14:30:00.166Z,20.10
2023-05-03T14:32:29.683Z,19.80
2023-05-03T14:34:56.962Z,19.70
2023-05-03T14:37:23.789Z,19.50
2023-05-03T14:39:52.812Z,19.40
2023-05-03T14:42:19.571Z,19.20
2023-05-03T14:44:47.701Z,19.10
2023-05-03T14:47:16.922Z,18.90
2023-05-03T14:49:45.903Z,18.50
2023-05-03T14:52:12.679Z,18.20
2023-05-03T14:54:39.455Z,17.90
2023-05-03T14:57:06.723Z,17.80
2023-05-03T14:59:33.756Z,17.70
2023-05-03T15:02:03.383Z,17.60
2023-05-03T15:04:30.758Z,17.50
2023-05-03T15:07:02.697Z,17.50
2023-05-03T15:09:35.572Z,17.50
2023-05-03T15:12:05.170Z,17.40
2023-05-03T15:14:31.866Z,17.30
2023-05-03T15:16:58.707Z,17.20
2023-05-03T15:19:26.790Z,17.10
2023-05-03T15:21:58.589Z,17.10
2023-05-03T15:24:27.827Z,17.00
2023-05-03T15:26:54.559Z,17.00
2023-05-03T15:29:21.715Z,17.00
2023-05-03T15:31:48.483Z,16.90
2023-05-03T15:34:15.345Z,16.90
2023-05-03T15:36:42.175Z,16.90
2023-05-03T15:39:09.478Z,16.80
2023-05-03T15:41:36.369Z,16.80
2023-05-03T15:44:05.311Z,16.60
2023-05-03T15:46:35.002Z,16.60
2023-05-03T15:49:01.961Z,16.40
2023-05-03T15:51:29.303Z,16.40
2023-05-03T15:53:56.096Z,16.40
2023-05-03T15:56:22.862Z,16.40
2023-05-03T15:58:50.162Z,16.40
2023-05-03T16:01:18.709Z,16.40
2023-05-03T16:03:47.975Z,16.30
2023-05-03T16:06:17.789Z,16.30
2023-05-03T16:08:45.157Z,16.30
2023-05-03T16:11:12.848Z,16.20
2023-05-03T16:13:39.603Z,16.20
2023-05-03T16:16:06.720Z,16.10
2023-05-03T16:18:35.901Z,16.10
2023-05-03T16:21:04.852Z,15.80
2023-05-03T16:23:31.630Z,15.70
2023-05-03T16:25:58.420Z,15.70
2023-05-03T16:28:25.237Z,15.60
2023-05-03T16:30:52.062Z,15.70
2023-05-03T16:33:19.531Z,15.60
2023-05-03T16:35:46.387Z,15.60
2023-05-03T16:38:15.305Z,15.60
2023-05-03T16:40:44.308Z,15.60
2023-05-03T16:43:15.587Z,15.50
2023-05-03T16:45:42.461Z,15.50
2023-05-03T16:48:10.865Z,15.50
2023-05-03T16:50:38.113Z,15.50
2023-05-03T16:53:07.087Z,15.50
2023-05-03T16:55:33.835Z,15.40
2023-05-03T16:58:00.822Z,15.30
2023-05-03T17:00:28.921Z,15.30
2023-05-03T17:02:56.062Z,15.30
2023-05-03T17:05:24.108Z,15.20
2023-05-03T17:07:53.405Z,15.20
2023-05-03T17:10:20.317Z,15.20
2023-05-03T17:12:47.646Z,15.10
2023-05-03T17:15:16.995Z,15.20
2023-05-03T17:17:43.748Z,15.20
2023-05-03T17:20:13.265Z,15.10
2023-05-03T17:22:42.224Z,15.10
2023-05-03T17:25:09.815Z,15.00
2023-05-03T17:27:39.104Z,15.00
2023-05-03T17:30:09.652Z,15.00
2023-05-03T17:32:38.705Z,15.00
2023-05-03T17:35:06.077Z,15.00
2023-05-03T17:37:35.778Z,15.10
2023-05-03T17:40:03.000Z,15.10
2023-05-03T17:42:33.555Z,15.00
2023-05-03T17:45:01.520Z,15.00
2023-05-03T17:47:28.845Z,15.00
2023-05-03T17:49:55.955Z,15.10
2023-05-03T17:52:22.922Z,15.10
2023-05-03T17:54:52.418Z,15.10
2023-05-03T17:57:23.414Z,15.00
2023-05-03T17:59:51.767Z,15.10
2023-05-03T18:02:21.758Z,15.00
2023-05-03T18:04:48.591Z,15.00
2023-05-03T18:07:17.095Z,15.00
2023-05-03T18:09:46.414Z,15.00
2023-05-03T18:12:17.924Z,15.00
2023-05-03T18:14:44.685Z,15.00
2023-05-03T18:17:11.460Z,14.90
2023-05-03T18:19:38.223Z,14.90
2023-05-03T18:22:05.917Z,14.80
2023-05-03T18:24:32.830Z,14.80
2023-05-03T18:26:59.659Z,14.80
2023-05-03T18:29:27.536Z,14.80
2023-05-03T18:31:54.806Z,14.80
2023-05-03T18:34:21.673Z,14.70
2023-05-03T18:36:50.661Z,14.70
2023-05-03T18:39:17.491Z,14.70
2023-05-03T18:41:44.298Z,14.70
2023-05-03T18:44:11.108Z,14.70
2023-05-03T18:46:37.933Z,14.60
2023-05-03T18:49:06.855Z,14.60
2023-05-03T18:51:33.676Z,14.50
2023-05-03T18:54:05.952Z,14.50
2023-05-03T18:56:34.898Z,14.50
2023-05-03T18:59:01.680Z,14.40
2023-05-03T19:01:28.537Z,14.40
2023-05-03T19:03:55.473Z,14.40
2023-05-03T19:06:22.394Z,14.30
2023-05-03T19:08:49.764Z,14.20
2023-05-03T19:11:17.180Z,14.20
2023-05-03T19:13:47.437Z,14.10
2023-05-03T19:16:19.373Z,14.10
2023-05-03T19:18:46.245Z,14.10
2023-05-03T19:21:13.154Z,14.00
2023-05-03T19:23:39.942Z,14.00
2023-05-03T19:26:07.188Z,14.00
2023-05-03T19:28:36.124Z,13.90
2023-05-03T19:31:06.238Z,13.90
2023-05-03T19:33:33.037Z,13.90
2023-05-03T19:36:07.250Z,13.80
2023-05-03T19:38:36.700Z,13.80
2023-05-03T19:41:07.942Z,13.80
2023-05-03T19:43:34.780Z,13.70
2023-05-03T19:46:02.889Z,13.70
2023-05-03T19:48:29.780Z,13.60
2023-05-03T19:50:56.632Z,13.60
2023-05-03T19:53:24.076Z,13.60
2023-05-03T19:55:58.769Z,13.50
2023-05-03T19:58:25.908Z,13.50
2023-05-03T20:00:52.935Z,13.40
2023-05-03T20:03:20.654Z,13.40
2023-05-03T20:05:49.755Z,13.40
2023-05-03T20:08:16.540Z,13.30
2023-05-03T20:10:46.593Z,13.30
2023-05-03T20:13:16.168Z,13.20
2023-05-03T20:15:43.009Z,13.20
2023-05-03T20:18:09.845Z,13.10
2023-05-03T20:20:36.669Z,13.10
2023-05-03T20:23:05.652Z,13.10
2023-05-03T20:25:32.394Z,13.00
2023-05-03T20:27:59.148Z,12.90
2023-05-03T20:30:26.036Z,12.90
2023-05-03T20:32:52.935Z,13.00
2023-05-03T20:35:22.130Z,12.90
2023-05-03T20:37:49.135Z,12.80
2023-05-03T20:40:18.330Z,12.80
2023-05-03T20:42:45.333Z,12.80
2023-05-03T20:45:12.502Z,12.70
2023-05-03T20:47:39.237Z,12.70
2023-05-03T20:50:06.995Z,12.70
2023-05-03T20:52:33.829Z,12.60
2023-05-03T20:55:00.673Z,12.60
2023-05-03T20:57:28.304Z,12.50
2023-05-03T20:59:58.282Z,12.50
2023-05-03T21:02:25.136Z,12.50
2023-05-03T21:04:52.013Z,12.50
2023-05-03T21:07:23.395Z,12.40
2023-05-03T21:09:52.451Z,12.40
2023-05-03T21:12:19.297Z,12.40
2023-05-03T21:14:48.233Z,12.40
2023-05-03T21:17:17.457Z,12.30
2023-05-03T21:19:44.381Z,12.30
2023-05-03T21:22:11.769Z,12.30
2023-05-03T21:24:40.930Z,12.20
2023-05-03T21:27:10.244Z,12.20
2023-05-03T21:29:37.082Z,12.20
2023-05-03T21:32:04.464Z,12.20
2023-05-03T21:34:31.276Z,12.20
2023-05-03T21:36:58.078Z,12.20
2023-05-03T21:39:25.028Z,12.20
2023-05-03T21:41:51.805Z,12.20
2023-05-03T21:44:18.751Z,12.20
2023-05-03T21:46:45.738Z,12.10
2023-05-03T21:49:14.770Z,12.10
2023-05-03T21:51:45.017Z,12.10
2023-05-03T21:54:11.875Z,12.10
2023-05-03T21:56:43.272Z,12.10
2023-05-03T21:59:10.013Z,12.10
2023-05-03T22:01:39.349Z,12.10
2023-05-03T22:04:06.334Z,12.00
2023-05-03T22:06:33.206Z,12.00
2023-05-03T22:09:00.122Z,12.00
2023-05-03T22:11:26.959Z,12.00
2023-05-03T22:14:06.599Z,12.00
2023-05-03T22:16:37.516Z,11.90
2023-05-03T22:19:05.383Z,11.90
2023-05-03T22:21:32.625Z,12.00
2023-05-03T22:24:01.902Z,11.90
2023-05-03T22:26:29.765Z,11.90
2023-05-03T22:28:59.039Z,11.90
2023-05-03T22:31:26.742Z,11.90
2023-05-03T22:33:58.340Z,11.90
2023-05-03T22:36:27.864Z,11.90
2023-05-03T22:39:00.844Z,11.80
2023-05-03T22:41:28.123Z,11.80
2023-05-03T22:43:54.900Z,11.80
2023-05-03T22:46:21.853Z,11.80
2023-05-03T22:48:48.766Z,11.70
2023-05-03T22:51:15.754Z,11.70
2023-05-03T22:53:44.692Z,11.70
2023-05-03T22:56:11.520Z,11.60
2023-05-03T22:58:38.268Z,11.60
2023-05-03T23:01:10.518Z,11.50
2023-05-03T23:03:37.452Z,11.40
2023-05-03T23:06:04.454Z,11.40
2023-05-03T23:08:33.699Z,11.30
2023-05-03T23:11:02.749Z,11.30
2023-05-03T23:13:32.507Z,11.20
2023-05-03T23:15:59.396Z,11.30
2023-05-03T23:18:26.717Z,11.20
2023-05-03T23:20:53.697Z,11.20
2023-05-03T23:23:20.571Z,11.20
2023-05-03T23:25:47.419Z,11.20
2023-05-03T23:28:16.697Z,11.20
2023-05-03T23:30:44.553Z,11.20
2023-05-03T23:33:11.767Z,11.10
2023-05-03T23:35:42.036Z,11.10
2023-05-03T23:38:08.905Z,11.10
2023-05-03T23:40:38.156Z,11.10
2023-05-03T23:43:09.783Z,11.00
2023-05-03T23:45:38.865Z,11.00
2023-05-03T23:48:06.395Z,10.90
2023-05-03T23:50:37.642Z,10.90
2023-05-03T23:53:05.142Z,10.90
2023-05-03T23:55:31.924Z,10.90
2023-05-03T23:57:58.757Z,10.80
